createdAt,value
2022-09-26T00:01:26.933Z,5.85
2022-09-26T00:03:59.274Z,6.03
2022-09-26T00:06:26.864Z,6.15
2022-09-26T00:08:54.810Z,5.55
2022-09-26T00:11:28.066Z,5.90
2022-09-26T00:13:58.189Z,5.40
2022-09-26T00:16:26.038Z,5.38
2022-09-26T00:18:54.983Z,5.32
2022-09-26T00:21:23.105Z,5.50
2022-09-26T00:23:50.392Z,5.97
2022-09-26T00:26:19.052Z,5.18
2022-09-26T00:28:46.532Z,5.57
2022-09-26T00:31:19.752Z,6.20
2022-09-26T00:33:47.230Z,5.55
2022-09-26T00:36:14.123Z,6.13
2022-09-26T00:38:41.000Z,5.60
2022-09-26T00:41:08.921Z,5.30
2022-09-26T00:43:44.315Z,5.50
2022-09-26T00:46:32.995Z,5.80
2022-09-26T00:49:17.616Z,5.10
2022-09-26T00:51:50.310Z,5.78
2022-09-26T00:54:18.989Z,5.82
2022-09-26T00:56:49.065Z,5.88
2022-09-26T00:59:28.080Z,5.78
2022-09-26T01:01:58.648Z,5.78
2022-09-26T01:04:28.313Z,6.13
2022-09-26T01:07:00.940Z,6.18
2022-09-26T01:09:29.155Z,6.63
2022-09-26T01:11:56.682Z,6.18
2022-09-26T01:14:24.809Z,6.25
2022-09-26T01:16:51.921Z,6.20
2022-09-26T01:19:29.465Z,6.43
2022-09-26T01:22:29.720Z,5.43
2022-09-26T01:24:56.307Z,6.10
2022-09-26T01:27:35.877Z,5.88
2022-09-26T01:30:07.225Z,6.18
2022-09-26T01:32:55.079Z,5.75
2022-09-26T01:35:21.809Z,6.57
2022-09-26T01:38:07.332Z,5.50
2022-09-26T01:41:12.636Z,6.00
2022-09-26T01:43:42.033Z,5.13
2022-09-26T01:46:39.599Z,5.50
2022-09-26T01:49:41.904Z,5.30
2022-09-26T01:52:22.421Z,6.05
2022-09-26T01:55:08.919Z,5.38
2022-09-26T01:57:44.324Z,5.03
2022-09-26T02:00:12.669Z,4.95
2022-09-26T02:02:46.204Z,4.93
2022-09-26T02:05:23.282Z,5.13
2022-09-26T02:08:17.187Z,5.80
2022-09-26T02:10:50.091Z,5.13
2022-09-26T02:13:26.630Z,5.22
2022-09-26T02:16:00.720Z,5.18
2022-09-26T02:18:37.498Z,5.63
2022-09-26T02:21:15.498Z,5.57
2022-09-26T02:23:42.399Z,5.25
2022-09-26T02:26:09.319Z,5.20
2022-09-26T02:28:36.156Z,5.93
2022-09-26T02:31:04.968Z,5.75
2022-09-26T02:33:31.687Z,6.28
2022-09-26T02:35:58.688Z,6.53
2022-09-26T02:38:29.113Z,5.93
2022-09-26T02:41:33.495Z,7.05
2022-09-26T02:44:06.323Z,6.57
2022-09-26T02:46:39.835Z,7.10
2022-09-26T02:49:16.203Z,6.65
2022-09-26T02:52:01.312Z,6.50
2022-09-26T02:55:20.173Z,6.60
2022-09-26T02:57:54.732Z,6.57
2022-09-26T03:00:31.067Z,5.78
2022-09-26T03:03:19.809Z,6.13
2022-09-26T03:05:51.562Z,5.88
2022-09-26T03:08:23.216Z,5.47
2022-09-26T03:10:51.335Z,5.78
2022-09-26T03:13:19.160Z,5.53
2022-09-26T03:15:50.652Z,5.03
2022-09-26T03:18:20.736Z,5.30
2022-09-26T03:20:47.990Z,5.40
2022-09-26T03:23:14.653Z,5.90
2022-09-26T03:25:41.394Z,5.70
2022-09-26T03:28:08.046Z,5.75
2022-09-26T03:30:34.824Z,5.45
2022-09-26T03:33:03.175Z,5.38
2022-09-26T03:35:30.206Z,5.38
2022-09-26T03:37:56.833Z,5.28
2022-09-26T03:40:23.501Z,6.57
2022-09-26T03:42:50.181Z,12.15
2022-09-26T03:45:17.478Z,21.60
2022-09-26T03:47:44.129Z,27.02
2022-09-26T03:50:10.966Z,35.08
2022-09-26T03:52:37.793Z,36.22
2022-09-26T03:55:05.282Z,25.40
2022-09-26T03:57:31.891Z,18.15
2022-09-26T03:59:58.570Z,12.63
2022-09-26T04:02:25.289Z,8.73
2022-09-26T04:04:52.328Z,8.93
2022-09-26T04:07:19.065Z,6.45
2022-09-26T04:09:45.689Z,6.10
2022-09-26T04:12:12.368Z,5.97
2022-09-26T04:14:39.100Z,5.47
2022-09-26T04:17:05.763Z,5.30
2022-09-26T04:19:33.643Z,5.38
2022-09-26T04:22:00.331Z,6.10
2022-09-26T04:24:28.024Z,5.63
2022-09-26T04:26:54.835Z,4.93
2022-09-26T04:29:21.944Z,4.90
2022-09-26T04:31:51.293Z,5.03
2022-09-26T04:34:19.650Z,4.85
2022-09-26T04:36:51.251Z,5.13
2022-09-26T04:39:18.101Z,5.53
2022-09-26T04:41:44.722Z,6.07
2022-09-26T04:44:12.662Z,6.78
2022-09-26T04:46:39.335Z,6.57
2022-09-26T04:49:06.430Z,7.82
2022-09-26T04:51:33.111Z,7.22
2022-09-26T04:53:59.877Z,6.68
2022-09-26T04:56:28.602Z,6.05
2022-09-26T04:58:57.369Z,5.60
2022-09-26T05:01:24.890Z,5.35
2022-09-26T05:03:51.689Z,5.72
2022-09-26T05:06:18.834Z,5.20
2022-09-26T05:08:49.106Z,4.90
2022-09-26T05:11:18.015Z,5.20
2022-09-26T05:13:44.984Z,4.45
2022-09-26T05:16:13.145Z,5.07
2022-09-26T05:18:40.676Z,5.07
2022-09-26T05:21:07.707Z,5.00
2022-09-26T05:23:53.799Z,4.63
2022-09-26T05:26:42.893Z,5.40
2022-09-26T05:29:10.251Z,5.40
2022-09-26T05:31:37.922Z,5.38
2022-09-26T05:34:18.470Z,5.30
2022-09-26T05:36:46.621Z,4.85
2022-09-26T05:39:31.966Z,4.93
2022-09-26T05:41:59.687Z,5.03
2022-09-26T05:44:27.293Z,4.82
2022-09-26T05:46:54.190Z,5.13
2022-09-26T05:49:20.875Z,5.00
2022-09-26T05:51:47.531Z,5.63
2022-09-26T05:54:14.352Z,5.07
2022-09-26T05:56:41.034Z,4.60
2022-09-26T05:59:07.857Z,5.15
2022-09-26T06:01:35.011Z,5.20
2022-09-26T06:04:05.006Z,5.10
2022-09-26T06:06:31.722Z,5.60
2022-09-26T06:08:58.366Z,5.40
2022-09-26T06:11:30.692Z,6.00
2022-09-26T06:14:00.390Z,5.50
2022-09-26T06:16:28.030Z,5.05
2022-09-26T06:18:55.646Z,5.78
2022-09-26T06:21:23.048Z,5.88
2022-09-26T06:23:50.009Z,5.60
2022-09-26T06:26:24.375Z,5.07
2022-09-26T06:29:00.225Z,6.00
2022-09-26T06:31:27.781Z,5.05
2022-09-26T06:33:55.253Z,5.60
2022-09-26T06:36:23.919Z,6.22
2022-09-26T06:38:51.285Z,5.43
2022-09-26T06:41:18.440Z,5.70
2022-09-26T06:43:45.989Z,5.22
2022-09-26T06:46:15.077Z,6.13
2022-09-26T06:48:42.646Z,5.65
2022-09-26T06:51:13.721Z,6.25
2022-09-26T06:53:41.145Z,5.85
2022-09-26T06:56:08.124Z,6.20
2022-09-26T06:58:34.847Z,6.38
2022-09-26T07:01:02.290Z,5.50
2022-09-26T07:03:29.578Z,5.68
2022-09-26T07:05:56.717Z,6.00
2022-09-26T07:08:43.347Z,5.50
2022-09-26T07:11:32.829Z,5.40
2022-09-26T07:14:01.848Z,4.97
2022-09-26T07:16:29.171Z,5.43
2022-09-26T07:18:56.769Z,5.18
2022-09-26T07:21:23.497Z,4.72
2022-09-26T07:23:50.123Z,5.05
2022-09-26T07:26:16.745Z,5.25
2022-09-26T07:28:44.024Z,5.45
2022-09-26T07:31:10.898Z,4.60
2022-09-26T07:33:39.286Z,5.40
2022-09-26T07:36:06.833Z,4.95
2022-09-26T07:38:33.541Z,5.13
2022-09-26T07:41:01.120Z,4.72
2022-09-26T07:44:04.172Z,4.90
2022-09-26T07:46:33.383Z,5.18
2022-09-26T07:49:18.736Z,4.32
2022-09-26T07:51:45.649Z,4.95
2022-09-26T07:54:12.304Z,4.78
2022-09-26T07:56:39.123Z,4.57
2022-09-26T07:59:05.946Z,4.18
2022-09-26T08:01:32.946Z,4.40
2022-09-26T08:03:59.749Z,4.30
2022-09-26T08:06:27.542Z,4.53
2022-09-26T08:08:55.565Z,4.15
2022-09-26T08:11:22.803Z,4.28
2022-09-26T08:13:50.005Z,4.43
2022-09-26T08:16:23.792Z,3.80
2022-09-26T08:18:52.237Z,4.82
2022-09-26T08:21:19.722Z,4.25
2022-09-26T08:23:49.452Z,4.55
2022-09-26T08:26:16.254Z,5.03
2022-09-26T08:28:42.993Z,5.13
2022-09-26T08:31:10.110Z,4.78
2022-09-26T08:33:38.629Z,4.80
2022-09-26T08:36:13.603Z,4.90
2022-09-26T08:38:40.283Z,5.47
2022-09-26T08:41:21.643Z,4.60
2022-09-26T08:44:09.425Z,4.97
2022-09-26T08:46:57.127Z,5.10
2022-09-26T08:49:30.788Z,4.88
2022-09-26T08:52:00.115Z,5.03
2022-09-26T08:54:44.903Z,4.80
2022-09-26T08:57:38.160Z,4.50
2022-09-26T09:00:24.999Z,4.50
2022-09-26T09:03:01.523Z,3.55
2022-09-26T09:05:38.987Z,4.47
2022-09-26T09:08:13.351Z,2.88
2022-09-26T09:10:39.963Z,2.47
2022-09-26T09:13:17.388Z,2.30
2022-09-26T09:16:18.882Z,2.35
2022-09-26T09:18:55.246Z,3.25
2022-09-26T09:21:41.664Z,3.00
2022-09-26T09:24:19.098Z,3.22
2022-09-26T09:30:25.632Z,4.07
2022-09-26T09:32:59.042Z,3.85
2022-09-26T09:35:35.821Z,4.03
2022-09-26T09:38:03.092Z,4.10
2022-09-26T09:40:44.245Z,4.47
2022-09-26T09:43:26.682Z,4.00
2022-09-26T09:45:59.079Z,3.80
2022-09-26T09:48:27.398Z,4.10
2022-09-26T09:51:27.279Z,3.83
2022-09-26T09:54:05.900Z,4.00
2022-09-26T09:57:08.919Z,3.63
2022-09-26T09:59:54.613Z,3.90
2022-09-26T10:02:46.475Z,3.05
2022-09-26T10:05:17.495Z,3.05
2022-09-26T10:07:45.149Z,2.75
2022-09-26T10:10:21.014Z,3.33
2022-09-26T10:12:51.916Z,2.65
2022-09-26T10:15:22.368Z,3.08
2022-09-26T10:21:06.809Z,3.38
2022-09-26T10:23:42.895Z,3.72
2022-09-26T10:26:11.266Z,3.63
2022-09-26T10:28:52.900Z,3.60
2022-09-26T10:31:41.402Z,3.58
2022-09-26T10:34:27.867Z,3.35
2022-09-26T10:36:55.720Z,3.00
2022-09-26T10:39:43.493Z,2.53
2022-09-26T10:42:16.053Z,2.60
2022-09-26T10:44:43.287Z,2.78
2022-09-26T10:47:19.385Z,2.30
2022-09-26T10:49:54.829Z,2.70
2022-09-26T10:52:36.678Z,2.28
2022-09-26T10:55:09.587Z,2.67
2022-09-26T10:57:53.379Z,2.40
2022-09-26T11:00:22.029Z,2.25
2022-09-26T11:02:53.883Z,2.40
2022-09-26T11:05:39.652Z,2.45
2022-09-26T11:08:08.739Z,2.50
2022-09-26T11:10:38.614Z,2.40
2022-09-26T11:13:21.587Z,2.83
2022-09-26T11:16:20.741Z,2.60
2022-09-26T11:19:19.648Z,2.42
2022-09-26T11:21:49.678Z,2.58
2022-09-26T11:24:22.581Z,2.28
2022-09-26T11:27:27.194Z,2.47
2022-09-26T11:29:55.664Z,2.58
2022-09-26T11:32:38.809Z,2.83
2022-09-26T11:35:06.096Z,2.15
2022-09-26T11:37:43.215Z,2.42
2022-09-26T11:40:40.610Z,2.17
2022-09-26T11:43:28.758Z,1.75
2022-09-26T11:46:31.257Z,1.60
2022-09-26T11:49:24.672Z,1.70
2022-09-26T11:52:12.908Z,1.60
2022-09-26T11:54:48.404Z,1.52
2022-09-26T11:57:42.380Z,1.50
2022-09-26T12:00:26.483Z,1.30
2022-09-26T12:03:15.681Z,1.30
2022-09-26T12:06:22.463Z,1.17
2022-09-26T12:08:49.113Z,1.73
2022-09-26T12:11:34.213Z,1.63
2022-09-26T12:14:36.027Z,1.80
2022-09-26T12:17:08.761Z,2.05
2022-09-26T12:19:49.030Z,2.35
2022-09-26T12:22:33.137Z,1.70
2022-09-26T12:25:07.300Z,1.33
2022-09-26T12:27:47.144Z,1.40
2022-09-26T12:30:24.874Z,1.13
2022-09-26T12:33:04.338Z,0.80
2022-09-26T12:35:54.827Z,1.02
2022-09-26T12:38:45.064Z,0.93
2022-09-26T12:41:30.724Z,1.15
2022-09-26T12:44:14.413Z,1.00
2022-09-26T12:47:02.842Z,1.20
2022-09-26T12:49:29.518Z,1.30
2022-09-26T12:52:13.389Z,1.40
2022-09-26T12:54:58.074Z,1.13
2022-09-26T12:57:43.726Z,1.38
2022-09-26T13:00:21.936Z,1.20
2022-09-26T13:03:07.898Z,1.00
2022-09-26T13:05:50.380Z,1.33
2022-09-26T13:08:26.063Z,1.10
2022-09-26T13:11:02.999Z,1.08
2022-09-26T13:13:46.288Z,1.20
2022-09-26T13:16:49.246Z,1.00
2022-09-26T13:19:35.188Z,1.05
2022-09-26T13:22:16.929Z,1.20
2022-09-26T13:24:56.810Z,1.27
2022-09-26T13:27:29.948Z,0.93
2022-09-26T13:30:03.438Z,1.13
2022-09-26T13:32:38.642Z,1.02
2022-09-26T13:35:20.873Z,0.90
2022-09-26T13:38:08.241Z,0.80
2022-09-26T13:40:49.468Z,0.90
2022-09-26T13:43:43.428Z,0.90
2022-09-26T13:46:31.762Z,1.00
2022-09-26T13:49:27.131Z,1.10
2022-09-26T13:52:05.984Z,0.80
2022-09-26T13:54:57.162Z,0.90
2022-09-26T13:57:36.251Z,1.40
2022-09-26T14:00:26.741Z,1.10
2022-09-26T14:03:17.740Z,0.90
2022-09-26T14:05:44.508Z,1.23
2022-09-26T14:08:52.164Z,0.98
2022-09-26T14:11:24.592Z,1.30
2022-09-26T14:14:20.523Z,1.33
2022-09-26T14:16:52.464Z,0.90
2022-09-26T14:19:38.252Z,0.80
2022-09-26T14:22:22.989Z,1.50
2022-09-26T14:24:50.962Z,1.40
2022-09-26T14:27:37.307Z,1.38
2022-09-26T14:30:24.851Z,1.88
2022-09-26T14:32:54.177Z,2.53
2022-09-26T14:35:34.136Z,2.40
2022-09-26T14:38:17.167Z,2.05
2022-09-26T14:40:56.360Z,1.23
2022-09-26T14:43:27.147Z,2.05
2022-09-26T14:46:07.006Z,2.47
2022-09-26T14:48:40.267Z,1.70
2022-09-26T14:51:24.340Z,1.88
2022-09-26T14:54:15.113Z,1.67
2022-09-26T14:56:57.098Z,2.70
2022-09-26T14:59:36.051Z,1.70
2022-09-26T15:02:17.869Z,1.73
2022-09-26T15:04:47.174Z,1.67
2022-09-26T15:07:20.626Z,1.60
2022-09-26T15:09:57.615Z,1.95
2022-09-26T15:12:41.051Z,1.88
2022-09-26T15:15:39.220Z,1.70
2022-09-26T15:18:25.873Z,1.50
2022-09-26T15:21:11.189Z,1.90
2022-09-26T15:23:50.594Z,2.00
2022-09-26T15:26:24.706Z,1.55
2022-09-26T15:28:52.766Z,1.80
2022-09-26T15:31:38.004Z,1.40
2022-09-26T15:34:19.125Z,1.92
2022-09-26T15:36:50.962Z,1.80
2022-09-26T15:39:38.969Z,1.42
2022-09-26T15:42:47.512Z,1.65
2022-09-26T15:45:35.651Z,1.60
2022-09-26T15:48:25.540Z,2.35
2022-09-26T15:51:06.427Z,1.90
2022-09-26T15:53:44.873Z,1.90
2022-09-26T15:56:23.822Z,1.63
2022-09-26T15:59:08.649Z,1.52
2022-09-26T16:01:41.613Z,1.85
2022-09-26T16:04:27.215Z,2.17
2022-09-26T16:07:02.438Z,2.22
2022-09-26T16:09:35.057Z,1.98
2022-09-26T16:12:02.863Z,2.00
2022-09-26T16:14:37.702Z,2.60
2022-09-26T16:17:18.402Z,1.70
2022-09-26T16:19:53.999Z,1.67
2022-09-26T16:22:22.505Z,2.00
2022-09-26T16:24:51.479Z,1.60
2022-09-26T16:27:25.233Z,2.17
2022-09-26T16:29:52.866Z,2.15
2022-09-26T16:32:21.567Z,1.92
2022-09-26T16:34:49.025Z,2.50
2022-09-26T16:37:23.127Z,2.38
2022-09-26T16:39:59.343Z,2.10
2022-09-26T16:42:31.614Z,2.55
2022-09-26T16:45:02.721Z,2.85
2022-09-26T16:47:44.292Z,2.55
2022-09-26T16:50:29.839Z,2.25
2022-09-26T16:52:57.459Z,1.80
2022-09-26T16:55:25.629Z,2.45
2022-09-26T16:57:55.682Z,3.10
2022-09-26T17:00:51.954Z,2.92
2022-09-26T17:03:25.542Z,1.88
2022-09-26T17:05:55.595Z,3.13
2022-09-26T17:08:23.098Z,2.40
2022-09-26T17:10:49.819Z,2.90
2022-09-26T17:13:22.762Z,2.10
2022-09-26T17:15:52.992Z,2.63
2022-09-26T17:18:23.852Z,2.92
2022-09-26T17:20:50.519Z,3.03
2022-09-26T17:23:38.702Z,2.00
2022-09-26T17:26:08.969Z,2.17
2022-09-26T17:28:42.602Z,1.80
2022-09-26T17:31:14.741Z,1.85
2022-09-26T17:33:41.994Z,1.75
2022-09-26T17:36:18.151Z,2.20
2022-09-26T17:38:45.008Z,2.20
2022-09-26T17:41:14.384Z,2.00
2022-09-26T17:43:41.130Z,2.00
2022-09-26T17:46:15.057Z,2.08
2022-09-26T17:48:42.846Z,1.98
2022-09-26T17:51:14.249Z,2.90
2022-09-26T17:53:50.077Z,5.75
2022-09-26T17:56:17.928Z,58.35
2022-09-26T17:58:45.548Z,15.05
2022-09-26T18:01:22.290Z,3.78
2022-09-26T18:03:51.137Z,3.58
2022-09-26T18:06:19.011Z,3.72
2022-09-26T18:08:45.656Z,4.22
2022-09-26T18:11:17.095Z,2.15
2022-09-26T18:13:54.376Z,2.30
2022-09-26T18:16:22.820Z,2.42
2022-09-26T18:18:50.147Z,2.13
2022-09-26T18:21:18.859Z,1.85
2022-09-26T18:23:58.663Z,1.85
2022-09-26T18:26:32.402Z,1.92
2022-09-26T18:29:05.445Z,1.88
2022-09-26T18:31:34.858Z,1.33
2022-09-26T18:34:03.152Z,1.95
2022-09-26T18:36:33.161Z,1.67
2022-09-26T18:39:00.216Z,1.90
2022-09-26T18:41:28.628Z,1.42
2022-09-26T18:44:00.120Z,1.73
2022-09-26T18:46:29.098Z,1.65
2022-09-26T18:48:59.882Z,1.75
2022-09-26T18:51:27.259Z,1.38
2022-09-26T18:53:54.377Z,1.60
2022-09-26T18:56:39.593Z,2.10
2022-09-26T18:59:10.247Z,1.75
2022-09-26T19:01:40.871Z,2.30
2022-09-26T19:04:13.493Z,2.00
2022-09-26T19:06:42.646Z,1.90
2022-09-26T19:09:15.784Z,1.83
2022-09-26T19:11:43.099Z,1.95
2022-09-26T19:14:31.202Z,1.88
2022-09-26T19:16:58.379Z,1.60
2022-09-26T19:19:25.949Z,2.03
2022-09-26T19:21:57.190Z,1.40
2022-09-26T19:24:31.859Z,1.60
2022-09-26T19:27:06.099Z,1.63
2022-09-26T19:29:59.852Z,1.70
2022-09-26T19:32:41.192Z,4.20
2022-09-26T19:35:27.155Z,4.47
2022-09-26T19:37:53.995Z,5.35
2022-09-26T19:40:21.650Z,3.67
2022-09-26T19:42:48.913Z,5.20
2022-09-26T19:45:16.606Z,3.10
2022-09-26T19:47:49.957Z,4.55
2022-09-26T19:50:19.171Z,5.03
2022-09-26T19:52:46.161Z,5.70
2022-09-26T19:55:18.757Z,4.82
2022-09-26T19:57:45.460Z,5.88
2022-09-26T20:00:12.872Z,7.60
2022-09-26T20:02:40.057Z,6.15
2022-09-26T20:05:19.114Z,5.65
2022-09-26T20:07:46.648Z,7.68
2022-09-26T20:10:19.180Z,5.70
2022-09-26T20:12:48.357Z,6.45
2022-09-26T20:15:16.973Z,5.10
2022-09-26T20:17:45.256Z,3.30
2022-09-26T20:20:22.917Z,4.15
2022-09-26T20:22:51.411Z,2.88
2022-09-26T20:25:26.835Z,2.25
2022-09-26T20:27:55.053Z,1.75
2022-09-26T20:30:41.637Z,1.55
2022-09-26T20:33:09.884Z,1.42
2022-09-26T20:35:41.299Z,1.40
2022-09-26T20:38:24.586Z,1.15
2022-09-26T20:40:54.528Z,0.80
2022-09-26T20:43:27.982Z,1.02
2022-09-26T20:45:55.436Z,0.60
2022-09-26T20:48:26.289Z,0.90
2022-09-26T20:50:53.160Z,0.82
2022-09-26T20:53:21.842Z,0.70
2022-09-26T20:55:49.314Z,0.82
2022-09-26T20:58:16.126Z,1.05
2022-09-26T21:00:43.956Z,0.80
2022-09-26T21:03:12.698Z,0.88
2022-09-26T21:05:39.569Z,1.25
2022-09-26T21:08:13.703Z,1.02
2022-09-26T21:10:40.562Z,1.00
2022-09-26T21:13:08.633Z,1.00
2022-09-26T21:15:35.707Z,1.55
2022-09-26T21:18:02.846Z,1.10
2022-09-26T21:20:32.237Z,0.82
2022-09-26T21:23:01.646Z,0.90
2022-09-26T21:25:31.112Z,0.90
2022-09-26T21:28:06.075Z,1.00
2022-09-26T21:30:33.901Z,0.93
2022-09-26T21:33:00.722Z,1.08
2022-09-26T21:35:29.901Z,1.55
2022-09-26T21:37:58.555Z,0.90
2022-09-26T21:40:29.622Z,1.00
2022-09-26T21:43:02.855Z,1.02
2022-09-26T21:45:29.610Z,0.82
2022-09-26T21:47:57.341Z,1.05
2022-09-26T21:50:27.261Z,1.00
2022-09-26T21:52:59.232Z,0.90
2022-09-26T21:55:35.637Z,0.90
2022-09-26T21:58:13.516Z,1.10
2022-09-26T22:00:40.706Z,1.00
2022-09-26T22:03:07.324Z,1.05
2022-09-26T22:05:34.074Z,1.25
2022-09-26T22:08:01.777Z,1.40
2022-09-26T22:10:29.287Z,1.20
2022-09-26T22:12:56.014Z,1.05
2022-09-26T22:15:22.899Z,1.10
2022-09-26T22:17:49.633Z,1.30
2022-09-26T22:20:16.596Z,0.90
2022-09-26T22:22:43.204Z,1.35
2022-09-26T22:25:10.009Z,1.20
2022-09-26T22:27:36.671Z,0.90
2022-09-26T22:30:04.627Z,1.40
2022-09-26T22:32:31.286Z,1.38
2022-09-26T22:34:58.296Z,0.88
2022-09-26T22:37:25.052Z,1.27
2022-09-26T22:39:51.758Z,1.05
2022-09-26T22:42:18.489Z,1.10
2022-09-26T22:44:45.113Z,1.20
2022-09-26T22:47:11.743Z,1.30
2022-09-26T22:49:38.451Z,1.00
2022-09-26T22:52:05.100Z,1.20
2022-09-26T22:54:31.743Z,1.10
2022-09-26T22:56:58.402Z,1.35
2022-09-26T22:59:25.199Z,1.17
2022-09-26T23:01:51.890Z,1.20
2022-09-26T23:04:18.795Z,1.20
2022-09-26T23:06:45.460Z,1.20
2022-09-26T23:09:12.118Z,1.33
2022-09-26T23:11:38.784Z,1.08
2022-09-26T23:14:05.408Z,1.30
2022-09-26T23:16:32.230Z,1.05
2022-09-26T23:18:59.106Z,1.20
2022-09-26T23:21:27.320Z,1.08
2022-09-26T23:23:56.723Z,1.00
2022-09-26T23:26:24.800Z,1.10
2022-09-26T23:28:53.262Z,1.25
2022-09-26T23:31:20.901Z,0.88
2022-09-26T23:33:49.055Z,1.20
2022-09-26T23:36:16.232Z,0.95
2022-09-26T23:38:43.228Z,0.90
2022-09-26T23:41:11.373Z,0.93
2022-09-26T23:43:38.889Z,1.30
2022-09-26T23:46:07.060Z,1.10
2022-09-26T23:48:34.004Z,1.30
2022-09-26T23:51:00.673Z,1.20
2022-09-26T23:53:27.723Z,1.25
2022-09-26T23:56:05.937Z,1.02
2022-09-26T23:58:33.152Z,1.33
